sensor_id;sensor_type;location;lat;lon;timestamp;P1;durP1;ratioP1;P2;durP2;ratioP2
52674;SDS011;38569;52.722;6.440;2022-11-14T00:02:54;72.25;;;33.30;;
52674;SDS011;38569;52.722;6.440;2022-11-14T00:05:23;64.95;;;32.78;;
52674;SDS011;38569;52.722;6.440;2022-11-14T00:07:49;64.10;;;30.67;;
52674;SDS011;38569;52.722;6.440;2022-11-14T00:10:14;61.03;;;31.92;;
52674;SDS011;38569;52.722;6.440;2022-11-14T00:12:40;58.67;;;32.03;;
52674;SDS011;38569;52.722;6.440;2022-11-14T00:15:06;61.97;;;31.17;;
52674;SDS011;38569;52.722;6.440;2022-11-14T00:17:33;61.38;;;30.45;;
52674;SDS011;38569;52.722;6.440;2022-11-14T00:19:59;62.00;;;32.22;;
52674;SDS011;38569;52.722;6.440;2022-11-14T00:22:26;63.03;;;34.97;;
52674;SDS011;38569;52.722;6.440;2022-11-14T00:24:51;60.00;;;31.70;;
52674;SDS011;38569;52.722;6.440;2022-11-14T00:27:17;64.90;;;33.00;;
52674;SDS011;38569;52.722;6.440;2022-11-14T00:29:43;58.22;;;31.15;;
52674;SDS011;38569;52.722;6.440;2022-11-14T00:32:08;61.45;;;32.38;;
52674;SDS011;38569;52.722;6.440;2022-11-14T00:34:34;67.18;;;33.17;;
52674;SDS011;38569;52.722;6.440;2022-11-14T00:37:00;63.15;;;34.03;;
52674;SDS011;38569;52.722;6.440;2022-11-14T00:39:26;58.95;;;33.00;;
52674;SDS011;38569;52.722;6.440;2022-11-14T00:41:51;58.92;;;33.42;;
52674;SDS011;38569;52.722;6.440;2022-11-14T00:44:17;65.55;;;35.33;;
52674;SDS011;38569;52.722;6.440;2022-11-14T00:46:43;63.55;;;34.38;;
52674;SDS011;38569;52.722;6.440;2022-11-14T00:49:09;68.35;;;34.95;;
52674;SDS011;38569;52.722;6.440;2022-11-14T00:51:35;62.17;;;34.95;;
52674;SDS011;38569;52.722;6.440;2022-11-14T00:54:01;59.35;;;30.67;;
52674;SDS011;38569;52.722;6.440;2022-11-14T00:56:27;71.50;;;37.53;;
52674;SDS011;38569;52.722;6.440;2022-11-14T00:58:53;64.57;;;34.85;;
52674;SDS011;38569;52.722;6.440;2022-11-14T01:01:18;58.67;;;36.00;;
52674;SDS011;38569;52.722;6.440;2022-11-14T01:03:47;61.33;;;37.10;;
52674;SDS011;38569;52.722;6.440;2022-11-14T01:06:14;64.55;;;38.08;;
52674;SDS011;38569;52.722;6.440;2022-11-14T01:08:40;67.40;;;34.53;;
52674;SDS011;38569;52.722;6.440;2022-11-14T01:11:08;64.97;;;35.65;;
52674;SDS011;38569;52.722;6.440;2022-11-14T01:13:36;68.35;;;38.28;;
52674;SDS011;38569;52.722;6.440;2022-11-14T01:16:02;64.70;;;36.53;;
52674;SDS011;38569;52.722;6.440;2022-11-14T01:18:28;61.33;;;35.25;;
52674;SDS011;38569;52.722;6.440;2022-11-14T01:20:53;73.07;;;38.45;;
52674;SDS011;38569;52.722;6.440;2022-11-14T01:23:19;62.78;;;35.15;;
52674;SDS011;38569;52.722;6.440;2022-11-14T01:25:45;62.83;;;36.78;;
52674;SDS011;38569;52.722;6.440;2022-11-14T01:28:11;67.20;;;37.95;;
52674;SDS011;38569;52.722;6.440;2022-11-14T01:30:39;71.15;;;37.90;;
52674;SDS011;38569;52.722;6.440;2022-11-14T01:33:05;74.03;;;39.08;;
52674;SDS011;38569;52.722;6.440;2022-11-14T01:35:31;66.18;;;37.67;;
52674;SDS011;38569;52.722;6.440;2022-11-14T01:37:59;65.35;;;36.22;;
52674;SDS011;38569;52.722;6.440;2022-11-14T01:40:25;66.53;;;38.00;;
52674;SDS011;38569;52.722;6.440;2022-11-14T01:45:52;73.40;;;40.67;;
52674;SDS011;38569;52.722;6.440;2022-11-14T01:53:41;72.00;;;39.85;;
52674;SDS011;38569;52.722;6.440;2022-11-14T01:56:08;78.75;;;43.55;;
52674;SDS011;38569;52.722;6.440;2022-11-14T01:58:37;70.25;;;39.97;;
52674;SDS011;38569;52.722;6.440;2022-11-14T02:01:05;77.40;;;42.03;;
52674;SDS011;38569;52.722;6.440;2022-11-14T02:03:32;85.97;;;43.92;;
52674;SDS011;38569;52.722;6.440;2022-11-14T02:06:00;80.68;;;43.38;;
52674;SDS011;38569;52.722;6.440;2022-11-14T02:08:27;83.43;;;45.33;;
52674;SDS011;38569;52.722;6.440;2022-11-14T02:10:53;78.57;;;40.95;;
52674;SDS011;38569;52.722;6.440;2022-11-14T02:13:19;69.25;;;36.35;;
52674;SDS011;38569;52.722;6.440;2022-11-14T02:15:45;76.35;;;43.63;;
52674;SDS011;38569;52.722;6.440;2022-11-14T02:18:10;70.30;;;40.90;;
52674;SDS011;38569;52.722;6.440;2022-11-14T02:20:37;70.70;;;40.58;;
52674;SDS011;38569;52.722;6.440;2022-11-14T02:23:07;80.20;;;41.15;;
52674;SDS011;38569;52.722;6.440;2022-11-14T02:25:36;82.80;;;44.63;;
52674;SDS011;38569;52.722;6.440;2022-11-14T02:28:02;77.85;;;43.53;;
52674;SDS011;38569;52.722;6.440;2022-11-14T02:30:29;81.57;;;42.92;;
52674;SDS011;38569;52.722;6.440;2022-11-14T02:32:55;78.30;;;40.97;;
52674;SDS011;38569;52.722;6.440;2022-11-14T02:35:21;86.65;;;43.45;;
52674;SDS011;38569;52.722;6.440;2022-11-14T02:37:46;82.38;;;43.95;;
52674;SDS011;38569;52.722;6.440;2022-11-14T02:40:12;80.53;;;45.88;;
52674;SDS011;38569;52.722;6.440;2022-11-14T02:42:38;84.82;;;45.05;;
52674;SDS011;38569;52.722;6.440;2022-11-14T02:45:04;83.40;;;45.97;;
52674;SDS011;38569;52.722;6.440;2022-11-14T02:47:30;83.82;;;44.97;;
52674;SDS011;38569;52.722;6.440;2022-11-14T02:49:56;85.53;;;45.50;;
52674;SDS011;38569;52.722;6.440;2022-11-14T02:52:22;87.68;;;47.97;;
52674;SDS011;38569;52.722;6.440;2022-11-14T02:54:47;83.35;;;45.05;;
52674;SDS011;38569;52.722;6.440;2022-11-14T02:57:13;92.00;;;46.97;;
52674;SDS011;38569;52.722;6.440;2022-11-14T02:59:39;87.93;;;43.33;;
52674;SDS011;38569;52.722;6.440;2022-11-14T03:02:04;82.60;;;45.05;;
52674;SDS011;38569;52.722;6.440;2022-11-14T03:04:30;77.35;;;43.38;;
52674;SDS011;38569;52.722;6.440;2022-11-14T03:06:56;85.40;;;45.42;;
52674;SDS011;38569;52.722;6.440;2022-11-14T03:09:21;87.65;;;45.58;;
52674;SDS011;38569;52.722;6.440;2022-11-14T03:11:47;86.38;;;44.80;;
52674;SDS011;38569;52.722;6.440;2022-11-14T03:14:13;84.15;;;46.40;;
52674;SDS011;38569;52.722;6.440;2022-11-14T03:16:38;84.05;;;43.78;;
52674;SDS011;38569;52.722;6.440;2022-11-14T03:19:04;86.40;;;45.17;;
52674;SDS011;38569;52.722;6.440;2022-11-14T03:21:30;80.22;;;43.33;;
52674;SDS011;38569;52.722;6.440;2022-11-14T03:23:55;82.38;;;46.00;;
52674;SDS011;38569;52.722;6.440;2022-11-14T03:26:21;79.72;;;43.38;;
52674;SDS011;38569;52.722;6.440;2022-11-14T03:28:47;80.45;;;44.47;;
52674;SDS011;38569;52.722;6.440;2022-11-14T03:31:12;81.28;;;43.67;;
52674;SDS011;38569;52.722;6.440;2022-11-14T03:33:38;82.68;;;46.25;;
52674;SDS011;38569;52.722;6.440;2022-11-14T03:36:04;82.65;;;45.40;;
52674;SDS011;38569;52.722;6.440;2022-11-14T03:38:31;81.70;;;44.35;;
52674;SDS011;38569;52.722;6.440;2022-11-14T03:40:57;92.40;;;50.25;;
52674;SDS011;38569;52.722;6.440;2022-11-14T03:43:23;92.20;;;48.75;;
52674;SDS011;38569;52.722;6.440;2022-11-14T03:45:50;88.32;;;48.15;;
52674;SDS011;38569;52.722;6.440;2022-11-14T03:48:15;88.32;;;48.15;;
52674;SDS011;38569;52.722;6.440;2022-11-14T03:50:42;91.40;;;48.42;;
52674;SDS011;38569;52.722;6.440;2022-11-14T03:53:08;87.03;;;47.13;;
52674;SDS011;38569;52.722;6.440;2022-11-14T03:55:35;85.05;;;45.97;;
52674;SDS011;38569;52.722;6.440;2022-11-14T03:58:03;86.93;;;46.65;;
52674;SDS011;38569;52.722;6.440;2022-11-14T04:00:28;85.95;;;43.40;;
52674;SDS011;38569;52.722;6.440;2022-11-14T04:02:54;78.28;;;42.97;;
52674;SDS011;38569;52.722;6.440;2022-11-14T04:05:21;86.13;;;46.28;;
52674;SDS011;38569;52.722;6.440;2022-11-14T04:07:47;85.13;;;49.33;;
52674;SDS011;38569;52.722;6.440;2022-11-14T04:10:12;82.47;;;44.90;;
52674;SDS011;38569;52.722;6.440;2022-11-14T04:12:38;89.70;;;49.10;;
52674;SDS011;38569;52.722;6.440;2022-11-14T04:15:04;87.70;;;50.20;;
52674;SDS011;38569;52.722;6.440;2022-11-14T04:17:30;81.28;;;47.10;;
52674;SDS011;38569;52.722;6.440;2022-11-14T04:19:55;87.05;;;48.42;;
52674;SDS011;38569;52.722;6.440;2022-11-14T04:22:21;86.40;;;47.22;;
52674;SDS011;38569;52.722;6.440;2022-11-14T04:24:47;84.70;;;47.90;;
52674;SDS011;38569;52.722;6.440;2022-11-14T04:27:12;88.78;;;48.55;;
52674;SDS011;38569;52.722;6.440;2022-11-14T04:29:38;73.68;;;44.28;;
52674;SDS011;38569;52.722;6.440;2022-11-14T04:32:04;91.18;;;48.00;;
52674;SDS011;38569;52.722;6.440;2022-11-14T04:34:29;87.63;;;47.50;;
52674;SDS011;38569;52.722;6.440;2022-11-14T04:36:55;88.20;;;45.90;;
52674;SDS011;38569;52.722;6.440;2022-11-14T04:39:21;84.97;;;47.50;;
52674;SDS011;38569;52.722;6.440;2022-11-14T04:41:46;77.97;;;43.20;;
52674;SDS011;38569;52.722;6.440;2022-11-14T04:44:12;85.38;;;45.15;;
52674;SDS011;38569;52.722;6.440;2022-11-14T04:46:37;79.35;;;45.00;;
52674;SDS011;38569;52.722;6.440;2022-11-14T04:49:03;77.15;;;42.58;;
52674;SDS011;38569;52.722;6.440;2022-11-14T04:51:30;72.93;;;42.78;;
52674;SDS011;38569;52.722;6.440;2022-11-14T04:53:56;80.93;;;45.95;;
52674;SDS011;38569;52.722;6.440;2022-11-14T04:56:21;83.95;;;46.85;;
52674;SDS011;38569;52.722;6.440;2022-11-14T04:58:49;85.47;;;48.05;;
52674;SDS011;38569;52.722;6.440;2022-11-14T05:01:15;79.10;;;44.38;;
52674;SDS011;38569;52.722;6.440;2022-11-14T05:03:40;85.85;;;47.97;;
52674;SDS011;38569;52.722;6.440;2022-11-14T05:06:06;84.25;;;46.78;;
52674;SDS011;38569;52.722;6.440;2022-11-14T05:08:32;85.47;;;45.78;;
52674;SDS011;38569;52.722;6.440;2022-11-14T05:10:58;79.25;;;43.92;;
52674;SDS011;38569;52.722;6.440;2022-11-14T05:13:24;79.45;;;45.83;;
52674;SDS011;38569;52.722;6.440;2022-11-14T05:15:50;86.57;;;48.08;;
52674;SDS011;38569;52.722;6.440;2022-11-14T05:18:15;84.13;;;45.63;;
52674;SDS011;38569;52.722;6.440;2022-11-14T05:20:41;76.15;;;45.80;;
52674;SDS011;38569;52.722;6.440;2022-11-14T05:23:11;80.35;;;46.47;;
52674;SDS011;38569;52.722;6.440;2022-11-14T05:25:57;79.07;;;46.78;;
52674;SDS011;38569;52.722;6.440;2022-11-14T05:28:26;78.85;;;44.42;;
52674;SDS011;38569;52.722;6.440;2022-11-14T05:30:52;84.43;;;46.70;;
52674;SDS011;38569;52.722;6.440;2022-11-14T05:33:24;78.20;;;40.70;;
52674;SDS011;38569;52.722;6.440;2022-11-14T05:35:50;71.35;;;41.88;;
52674;SDS011;38569;52.722;6.440;2022-11-14T05:38:15;79.22;;;45.22;;
52674;SDS011;38569;52.722;6.440;2022-11-14T05:40:41;84.30;;;47.28;;
52674;SDS011;38569;52.722;6.440;2022-11-14T05:43:06;83.97;;;48.28;;
52674;SDS011;38569;52.722;6.440;2022-11-14T05:45:32;79.93;;;44.42;;
52674;SDS011;38569;52.722;6.440;2022-11-14T05:47:58;82.00;;;46.40;;
52674;SDS011;38569;52.722;6.440;2022-11-14T05:50:23;85.05;;;48.28;;
52674;SDS011;38569;52.722;6.440;2022-11-14T05:52:49;89.53;;;46.53;;
52674;SDS011;38569;52.722;6.440;2022-11-14T05:55:15;75.45;;;44.63;;
52674;SDS011;38569;52.722;6.440;2022-11-14T05:57:40;76.40;;;43.78;;
52674;SDS011;38569;52.722;6.440;2022-11-14T06:00:06;84.93;;;48.45;;
52674;SDS011;38569;52.722;6.440;2022-11-14T06:02:33;80.50;;;44.60;;
52674;SDS011;38569;52.722;6.440;2022-11-14T06:04:59;81.80;;;44.67;;
52674;SDS011;38569;52.722;6.440;2022-11-14T06:07:25;81.13;;;48.13;;
52674;SDS011;38569;52.722;6.440;2022-11-14T06:09:50;79.75;;;45.90;;
52674;SDS011;38569;52.722;6.440;2022-11-14T06:12:16;93.53;;;49.03;;
52674;SDS011;38569;52.722;6.440;2022-11-14T06:14:42;86.90;;;46.85;;
52674;SDS011;38569;52.722;6.440;2022-11-14T06:17:07;84.25;;;45.17;;
52674;SDS011;38569;52.722;6.440;2022-11-14T06:19:33;81.00;;;47.53;;
52674;SDS011;38569;52.722;6.440;2022-11-14T06:21:59;81.32;;;46.17;;
52674;SDS011;38569;52.722;6.440;2022-11-14T06:24:24;94.65;;;48.03;;
52674;SDS011;38569;52.722;6.440;2022-11-14T06:26:50;83.40;;;45.97;;
52674;SDS011;38569;52.722;6.440;2022-11-14T06:29:16;75.18;;;45.55;;
52674;SDS011;38569;52.722;6.440;2022-11-14T06:31:41;82.05;;;47.78;;
52674;SDS011;38569;52.722;6.440;2022-11-14T06:34:07;81.90;;;44.97;;
52674;SDS011;38569;52.722;6.440;2022-11-14T06:36:35;88.65;;;47.55;;
52674;SDS011;38569;52.722;6.440;2022-11-14T06:39:00;79.03;;;42.95;;
52674;SDS011;38569;52.722;6.440;2022-11-14T06:41:26;88.07;;;48.58;;
52674;SDS011;38569;52.722;6.440;2022-11-14T06:43:52;88.93;;;48.03;;
52674;SDS011;38569;52.722;6.440;2022-11-14T06:46:19;83.90;;;45.90;;
52674;SDS011;38569;52.722;6.440;2022-11-14T06:48:46;82.10;;;45.53;;
52674;SDS011;38569;52.722;6.440;2022-11-14T06:51:14;87.05;;;45.30;;
52674;SDS011;38569;52.722;6.440;2022-11-14T06:53:41;85.85;;;45.70;;
52674;SDS011;38569;52.722;6.440;2022-11-14T06:56:08;81.03;;;45.00;;
52674;SDS011;38569;52.722;6.440;2022-11-14T06:58:40;83.53;;;44.88;;
52674;SDS011;38569;52.722;6.440;2022-11-14T07:01:11;89.45;;;48.20;;
52674;SDS011;38569;52.722;6.440;2022-11-14T07:06:12;82.80;;;45.47;;
52674;SDS011;38569;52.722;6.440;2022-11-14T07:08:39;79.40;;;43.00;;
52674;SDS011;38569;52.722;6.440;2022-11-14T07:13:35;83.57;;;44.55;;
52674;SDS011;38569;52.722;6.440;2022-11-14T07:16:01;82.38;;;44.53;;
52674;SDS011;38569;52.722;6.440;2022-11-14T07:18:28;89.80;;;47.05;;
52674;SDS011;38569;52.722;6.440;2022-11-14T07:20:59;74.78;;;38.53;;
52674;SDS011;38569;52.722;6.440;2022-11-14T07:23:27;92.82;;;47.10;;
52674;SDS011;38569;52.722;6.440;2022-11-14T07:25:53;94.80;;;46.75;;
52674;SDS011;38569;52.722;6.440;2022-11-14T07:28:19;86.25;;;46.40;;
52674;SDS011;38569;52.722;6.440;2022-11-14T07:30:44;93.55;;;46.22;;
52674;SDS011;38569;52.722;6.440;2022-11-14T07:33:10;86.72;;;43.67;;
52674;SDS011;38569;52.722;6.440;2022-11-14T07:35:39;88.80;;;45.80;;
52674;SDS011;38569;52.722;6.440;2022-11-14T07:38:05;89.47;;;46.40;;
52674;SDS011;38569;52.722;6.440;2022-11-14T07:40:31;86.65;;;45.88;;
52674;SDS011;38569;52.722;6.440;2022-11-14T07:43:00;82.63;;;43.30;;
52674;SDS011;38569;52.722;6.440;2022-11-14T07:45:26;93.50;;;45.67;;
52674;SDS011;38569;52.722;6.440;2022-11-14T07:47:54;97.47;;;46.72;;
52674;SDS011;38569;52.722;6.440;2022-11-14T07:50:21;88.25;;;42.90;;
52674;SDS011;38569;52.722;6.440;2022-11-14T07:52:50;82.53;;;43.35;;
52674;SDS011;38569;52.722;6.440;2022-11-14T07:55:17;86.28;;;44.40;;
52674;SDS011;38569;52.722;6.440;2022-11-14T07:57:44;97.32;;;46.63;;
52674;SDS011;38569;52.722;6.440;2022-11-14T08:00:10;86.88;;;44.30;;
52674;SDS011;38569;52.722;6.440;2022-11-14T08:02:36;94.10;;;45.10;;
52674;SDS011;38569;52.722;6.440;2022-11-14T08:05:02;90.65;;;45.90;;
52674;SDS011;38569;52.722;6.440;2022-11-14T08:07:28;86.75;;;43.83;;
52674;SDS011;38569;52.722;6.440;2022-11-14T08:09:54;89.78;;;45.97;;
52674;SDS011;38569;52.722;6.440;2022-11-14T08:12:20;77.35;;;40.55;;
52674;SDS011;38569;52.722;6.440;2022-11-14T08:14:45;84.10;;;42.30;;
52674;SDS011;38569;52.722;6.440;2022-11-14T08:17:11;87.50;;;43.85;;
52674;SDS011;38569;52.722;6.440;2022-11-14T08:19:37;84.15;;;43.65;;
52674;SDS011;38569;52.722;6.440;2022-11-14T08:22:02;86.78;;;41.95;;
52674;SDS011;38569;52.722;6.440;2022-11-14T08:24:28;81.43;;;43.88;;
52674;SDS011;38569;52.722;6.440;2022-11-14T08:26:54;78.28;;;42.38;;
52674;SDS011;38569;52.722;6.440;2022-11-14T08:29:19;82.57;;;42.80;;
52674;SDS011;38569;52.722;6.440;2022-11-14T08:31:45;87.93;;;45.78;;
52674;SDS011;38569;52.722;6.440;2022-11-14T08:34:11;76.88;;;43.83;;
52674;SDS011;38569;52.722;6.440;2022-11-14T08:36:37;76.53;;;42.63;;
52674;SDS011;38569;52.722;6.440;2022-11-14T08:39:02;76.53;;;43.78;;
52674;SDS011;38569;52.722;6.440;2022-11-14T08:41:28;81.28;;;43.33;;
52674;SDS011;38569;52.722;6.440;2022-11-14T08:43:54;81.65;;;43.20;;
52674;SDS011;38569;52.722;6.440;2022-11-14T08:46:20;81.32;;;41.72;;
52674;SDS011;38569;52.722;6.440;2022-11-14T08:48:45;74.88;;;41.67;;
52674;SDS011;38569;52.722;6.440;2022-11-14T08:51:12;76.00;;;41.88;;
52674;SDS011;38569;52.722;6.440;2022-11-14T08:53:37;76.15;;;40.50;;
52674;SDS011;38569;52.722;6.440;2022-11-14T08:56:03;72.20;;;40.80;;
52674;SDS011;38569;52.722;6.440;2022-11-14T08:58:30;82.05;;;42.65;;
52674;SDS011;38569;52.722;6.440;2022-11-14T09:01:03;78.25;;;44.47;;
